• Join FlightAware (Why Join?)
  • Login
  • US Flag 
07:43AM EDT


 

Airport Tracker/Info


-or-


 

Live Flight TrackerFlight Track Log ✈ AMF1324 ✈ 12-Nov-2013 ✈ KBGM - KBUF

Flight Track Log - Related Links

Times and Time Zones

All times are in EST time to prevent confusion due to time zone crossing. See the AMF1324 flight status page for this flight to view local times or setup timezone preferences in your user account.

Time Position Orientation Groundspeed Altitude Reporting Facility
EST Latitude Longitude Course Direction KTS MPH feet Rate Location/Type
07:55AM 42.1628 -75.7422 290° West 127 146 9,000  Level New York Center
07:57AM 42.1853 -75.8237 290° West  Level Estimated
08:04AM 42.2715 -76.1384 290° West  Level Estimated
08:05AM 42.2837 -76.1834 290° West  Level Estimated
08:06AM 42.2960 -76.2284 290° West  Level Estimated
08:07AM 42.3082 -76.2735 290° West  Level Estimated
08:08AM 42.3204 -76.3186 290° West  Level Estimated
08:09AM 42.3325 -76.3637 290° West  Level Estimated
08:10AM 42.3447 -76.4088 290° West  Level Estimated
08:11AM 42.3568 -76.4539 290° West  Level Estimated
08:12AM 42.3689 -76.4990 290° West  Level Estimated
08:13AM 42.3810 -76.5442 290° West  Level Estimated
08:14AM 42.3931 -76.5894 290° West  Level Estimated
08:15AM 42.4052 -76.6346 290° West  Level Estimated
08:16AM 42.4172 -76.6798 290° West  Level Estimated
08:17AM 42.4293 -76.7250 290° West  Level Estimated
08:18AM 42.4413 -76.7703 290° West  Level Estimated
08:19AM 42.4533 -76.8155 290° West  Level Estimated
08:20AM 42.4652 -76.8608 290° West  Level Estimated
08:21AM 42.4772 -76.9061 290° West  Level Estimated
08:22AM 42.4892 -76.9514 290° West  Level Estimated
08:23AM 42.5011 -76.9968 290° West  Level Estimated
08:24AM 42.5130 -77.0421 290° West  Level Estimated
08:25AM 42.5249 -77.0875 290° West  Level Estimated
08:26AM 42.5367 -77.1329 290° West  Level Estimated
08:27AM 42.5486 -77.1783 290° West  Level Estimated
08:28AM 42.5604 -77.2237 289° West  Level Estimated
08:29AM 42.5722 -77.2691 289° West  Level Estimated
08:30AM 42.5840 -77.3146 289° West  Level Estimated
08:31AM 42.5958 -77.3600 289° West  Level Estimated
08:32AM 42.6076 -77.4055 289° West  Level Estimated
08:33AM 42.6193 -77.4510 289° West  Level Estimated
08:34AM 42.6311 -77.4966 289° West  Level Estimated
08:35AM 42.6428 -77.5421 289° West  Level Estimated
08:36AM 42.6544 -77.5877 289° West  Level Estimated
08:37AM 42.6661 -77.6332 289° West  Level Estimated
08:38AM 42.6778 -77.6788 289° West  Level Estimated
08:39AM 42.6894 -77.7244 289° West  Level Estimated
08:40AM 42.7010 -77.7701 289° West  Level Estimated
08:41AM 42.7126 -77.8157 289° West  Level Estimated
08:42AM 42.7242 -77.8614 289° West  Level Estimated
08:43AM 42.7358 -77.9071 289° West  Level Estimated
08:44AM 42.7473 -77.9527 289° West  Level Estimated
08:45AM 42.7589 -77.9985 289° West  Level Estimated
08:46AM 42.7704 -78.0442 289° West  Level Estimated
08:47AM 42.7818 -78.0899 289° West  Level Estimated
08:48AM 42.7933 -78.1357 289° West  Level Estimated
08:49AM 42.8048 -78.1815 289° West  Level Estimated
08:50AM 42.8162 -78.2273 289° West  Level Estimated
08:51AM 42.8276 -78.2731 289° West  Level Estimated
08:52AM 42.8390 -78.3189 289° West  Level Estimated
08:53AM 42.8504 -78.3648 289° West  Level Estimated
08:54AM 42.8618 -78.4106 289° West  Level Estimated
08:55AM 42.8731 -78.4565 289° West  Level Estimated
08:56AM 42.8844 -78.5024 289° West  Level Estimated
08:56AM 42.2719 -76.1578 289° West 173 199 9,100  Level Cleveland Center
08:57AM 42.8957 -78.5483 289° West  Level Estimated
08:57AM 42.2939 -76.2200 296° West 181 208 11,500  Level Cleveland Center
08:58AM 42.9070 -78.5942 289° West  Level Estimated
08:58AM 42.3169 -76.2786 298° West 179 206 12,000  Level Cleveland Center
08:59AM 42.9183 -78.6402 289° West  Level Estimated
08:59AM 42.3453 -76.3578 296° West 224 258 12,000  Level Cleveland Center
09:00AM 42.9296 -78.6861 289° West  Level Estimated
09:00AM 42.3756 -76.4353 298° West 228 262 12,000  Level Cleveland Center
09:01AM 42.4147 -76.5219 301° West 227 261 11,900  Descending Cleveland Center
09:02AM 42.4458 -76.5956 300° West 228 262 12,000  Climbing Cleveland Center
09:03AM 42.4767 -76.6694 300° West 228 262 12,000 -60 Level Cleveland Center
09:04AM 42.5047 -76.7447 297° West 226 260 11,900 -60 Descending Cleveland Center
09:05AM 42.5311 -76.8244 294° West 232 267 11,900  Level Cleveland Center
09:06AM 42.5600 -76.9039 296° West 234 269 11,900  Level Cleveland Center
09:07AM 42.5883 -77.0017 292° West 237 273 11,900  Level Cleveland Center
09:08AM 42.6056 -77.0881 285° West 237 273 12,000  Climbing Cleveland Center
09:09AM 42.6267 -77.1736 289° West 239 275 12,000  Level Cleveland Center
09:10AM 42.6403 -77.2631 282° West 242 278 12,100  Climbing Cleveland Center
09:11AM 42.6558 -77.3517 283° West 242 278 12,000 -60 Descending Cleveland Center
09:12AM 42.6744 -77.4375 286° West 240 276 12,000  Level Cleveland Center
09:13AM 42.6953 -77.5431 285° West 244 281 12,000  Level Cleveland Center
09:14AM 42.7094 -77.6297 283° West 241 277 12,000  Level Cleveland Center
09:15AM 42.7228 -77.7156 282° West 239 275 12,000  Level Cleveland Center
09:16AM 42.7394 -77.8031 285° West 241 277 12,000 -540 Level Cleveland Center
09:17AM 42.7622 -77.9158 285° West 257 296 11,000 -600 Descending Cleveland Center
09:18AM 42.7764 -77.9892 285° West 244 281 11,000 60 Level Cleveland Center
09:18AM 42.7783 -78.0044 280° West 243 280 11,100 -1,140 Climbing Cleveland Center
09:19AM 42.7928 -78.0803 285° West 244 281 9,900 -1,500 Descending Cleveland Center
09:20AM 42.7958 -78.1008 281° West 246 283 9,600 -1,800 Descending Cleveland Center
09:20AM 42.8097 -78.1686 286° West 246 283 8,100 -1,860 Descending Cleveland Center
09:21AM 42.8142 -78.1950 283° West 246 283 7,700 -1,980 Descending Cleveland Center
09:21AM 42.8264 -78.2569 285° West 241 277 6,100 -1,860 Descending Cleveland Center
09:22AM 42.8294 -78.2806 280° West 241 277 5,800 -2,040 Descending Cleveland Center
09:22AM 42.8414 -78.3419 285° West 226 260 4,100 -1,980 Descending Cleveland Center
09:23AM 42.8422 -78.3667 273° West 222 255 3,800 -720 Descending Cleveland Center
09:23AM 42.8408 -78.4167 268° West 183 211 3,400 -420 Descending Cleveland Center
09:24AM 42.8403 -78.4414 268° West 187 215 3,400  Level Cleveland Center
09:24AM 42.8394 -78.4828 268° West 173 199 3,400 240 Level Cleveland Center
09:25AM 42.8394 -78.5103 270° West 176 203 3,700 60 Climbing Cleveland Center
09:25AM 42.8481 -78.5517 286° West 192 221 3,500 -120 Descending Cleveland Center
09:26AM 42.8597 -78.5781 301° West 181 208 3,600 -720 Climbing Cleveland Center
09:26AM 42.8708 -78.5986 306° West 123 142 2,800 -900 Descending Cleveland Center
09:27AM 42.8792 -78.6169 302° West 123 142 2,700 -360 Descending Cleveland Center
09:27AM 42.8833 -78.6333 289° West 96 110 2,500 -600 Descending Buffalo TRACON
09:28AM 42.9000 -78.6667 304° West 109 125 1,800 -660 Descending Buffalo TRACON
09:29AM 42.9167 -78.7000 304° West 115 132 1,200 -600 Descending Buffalo TRACON
09:31AM 42.9333 -78.7167 294° West  Level FlightAware Approximate
09:38AM 42.9404 -78.7306 294° West  Level Estimated